createdAt,value
2018-04-17T00:01:31.436Z,84.09
2018-04-17T00:03:58.908Z,83.96
2018-04-17T00:06:26.400Z,83.79
2018-04-17T00:08:53.887Z,83.93
2018-04-17T00:11:21.395Z,84.04
2018-04-17T00:13:49.019Z,84.05
2018-04-17T00:16:16.503Z,84.29
2018-04-17T00:18:43.985Z,84.42
2018-04-17T00:21:11.491Z,84.49
2018-04-17T00:23:38.955Z,85.09
2018-04-17T00:26:06.564Z,84.67
2018-04-17T00:28:34.099Z,84.72
2018-04-17T00:31:01.762Z,85.14
2018-04-17T00:33:29.432Z,85.12
2018-04-17T00:35:57.171Z,85.10
2018-04-17T00:38:24.899Z,85.55
2018-04-17T00:40:52.372Z,85.86
2018-04-17T00:43:19.876Z,86.06
2018-04-17T00:45:47.348Z,86.38
2018-04-17T00:48:14.860Z,86.56
2018-04-17T00:50:42.328Z,86.67
2018-04-17T00:53:21.702Z,86.76
2018-04-17T00:55:49.185Z,86.84
2018-04-17T00:58:16.709Z,87.19
2018-04-17T01:00:44.342Z,87.26
2018-04-17T01:03:12.078Z,87.30
2018-04-17T01:05:39.690Z,87.57
2018-04-17T01:08:07.558Z,87.84
2018-04-17T01:10:35.611Z,88.25
2018-04-17T01:13:03.272Z,88.43
2018-04-17T01:15:30.772Z,88.51
2018-04-17T01:17:59.262Z,88.58
2018-04-17T01:20:27.073Z,88.72
2018-04-17T01:22:55.160Z,88.61
2018-04-17T01:25:22.717Z,88.54
2018-04-17T01:27:50.595Z,88.42
2018-04-17T01:30:18.302Z,88.42
2018-04-17T01:32:45.998Z,88.31
2018-04-17T01:35:13.498Z,88.24
2018-04-17T01:37:40.995Z,88.23
2018-04-17T01:40:08.477Z,88.18
2018-04-17T01:42:35.935Z,88.31
2018-04-17T01:45:03.453Z,88.40
2018-04-17T01:47:30.948Z,88.76
2018-04-17T01:49:58.465Z,88.75
2018-04-17T01:52:25.956Z,88.73
2018-04-17T01:54:53.667Z,88.61
2018-04-17T01:57:21.215Z,88.65
2018-04-17T01:59:48.791Z,88.72
2018-04-17T02:02:16.282Z,88.73
2018-04-17T02:04:43.786Z,88.97
2018-04-17T02:07:11.289Z,89.17
2018-04-17T02:09:38.838Z,89.08
2018-04-17T02:12:06.324Z,89.20
2018-04-17T02:14:33.865Z,89.22
2018-04-17T02:17:01.359Z,89.21
2018-04-17T02:19:28.906Z,89.27
2018-04-17T02:21:56.501Z,89.27
2018-04-17T02:24:23.990Z,89.20
2018-04-17T02:26:51.541Z,89.28
2018-04-17T02:29:19.045Z,89.16
2018-04-17T02:31:46.533Z,89.21
2018-04-17T02:34:14.019Z,89.48
2018-04-17T02:36:41.488Z,89.55
2018-04-17T02:39:08.976Z,89.55
2018-04-17T02:41:36.464Z,89.63
2018-04-17T02:44:03.979Z,89.64
2018-04-17T02:46:31.444Z,89.75
2018-04-17T02:48:59.264Z,89.92
2018-04-17T02:51:26.862Z,90.00
2018-04-17T02:53:54.365Z,90.00
2018-04-17T02:56:21.835Z,90.02
2018-04-17T02:58:49.325Z,89.90
2018-04-17T03:01:16.819Z,90.07
2018-04-17T03:03:44.349Z,90.01
2018-04-17T03:06:11.972Z,89.79
2018-04-17T03:08:39.463Z,89.87
2018-04-17T03:11:06.958Z,89.92
2018-04-17T03:13:34.451Z,89.89
2018-04-17T03:16:01.964Z,89.90
2018-04-17T03:18:29.436Z,89.93
2018-04-17T03:20:56.927Z,89.83
2018-04-17T03:23:24.395Z,89.78
2018-04-17T03:25:51.905Z,89.79
2018-04-17T03:28:19.403Z,89.71
2018-04-17T03:30:46.966Z,89.78
2018-04-17T03:33:14.511Z,89.73
2018-04-17T03:35:42.019Z,89.85
2018-04-17T03:38:09.483Z,89.83
2018-04-17T03:40:37.000Z,89.80
2018-04-17T03:43:04.476Z,89.69
2018-04-17T03:45:31.969Z,89.69
2018-04-17T03:47:59.472Z,89.66
2018-04-17T03:50:26.967Z,89.64
2018-04-17T03:52:54.427Z,89.58
2018-04-17T03:55:21.919Z,89.75
2018-04-17T03:57:49.382Z,89.88
2018-04-17T04:00:16.892Z,89.79
2018-04-17T04:02:44.400Z,90.13
2018-04-17T04:05:11.842Z,90.19
2018-04-17T04:07:39.333Z,90.09
2018-04-17T04:10:06.795Z,90.04
2018-04-17T04:12:34.343Z,90.19
2018-04-17T04:15:01.931Z,90.20
2018-04-17T04:17:41.192Z,90.12
2018-04-17T04:20:20.683Z,90.00
2018-04-17T04:23:00.016Z,90.07
2018-04-17T04:25:52.426Z,89.94
2018-04-17T04:28:19.893Z,89.94
2018-04-17T04:30:47.356Z,90.06
2018-04-17T04:33:14.851Z,90.21
2018-04-17T04:35:42.429Z,90.27
2018-04-17T04:38:09.923Z,90.42
2018-04-17T04:40:37.412Z,90.57
2018-04-17T04:43:04.944Z,90.67
2018-04-17T04:45:32.420Z,90.70
2018-04-17T04:47:59.902Z,90.58
2018-04-17T04:50:27.443Z,90.52
2018-04-17T04:52:54.926Z,90.55
2018-04-17T04:55:22.418Z,90.65
2018-04-17T04:57:49.940Z,90.53
2018-04-17T05:00:17.412Z,90.48
2018-04-17T05:02:44.902Z,90.58
2018-04-17T05:05:12.375Z,90.42
2018-04-17T05:07:39.858Z,90.57
2018-04-17T05:10:07.413Z,90.53
2018-04-17T05:12:34.900Z,90.49
2018-04-17T05:15:02.372Z,90.46
2018-04-17T05:17:29.878Z,90.47
2018-04-17T05:19:57.424Z,90.45
2018-04-17T05:22:25.011Z,90.37
2018-04-17T05:24:52.567Z,90.33
2018-04-17T05:27:20.057Z,90.30
2018-04-17T05:29:47.531Z,90.39
2018-04-17T05:32:15.008Z,90.35
2018-04-17T05:34:42.500Z,90.40
2018-04-17T05:37:09.964Z,90.42
2018-04-17T05:39:37.471Z,90.43
2018-04-17T05:42:04.943Z,90.42
2018-04-17T05:44:32.419Z,90.24
2018-04-17T05:47:00.840Z,90.33
2018-04-17T05:49:28.332Z,90.34
2018-04-17T05:51:55.822Z,90.27
2018-04-17T05:54:23.319Z,90.05
2018-04-17T05:56:50.796Z,90.14
2018-04-17T05:59:18.384Z,90.04
2018-04-17T06:01:45.859Z,89.96
2018-04-17T06:04:13.355Z,89.48
2018-04-17T06:06:40.857Z,89.38
2018-04-17T06:09:08.375Z,89.10
2018-04-17T06:11:35.908Z,89.03
2018-04-17T06:14:03.412Z,88.57
2018-04-17T06:16:30.883Z,88.22
2018-04-17T06:18:58.383Z,87.69
2018-04-17T06:21:25.937Z,87.60
2018-04-17T06:23:53.435Z,87.69
2018-04-17T06:26:20.932Z,87.74
2018-04-17T06:28:48.446Z,87.46
2018-04-17T06:31:15.951Z,87.34
2018-04-17T06:33:43.471Z,86.72
2018-04-17T06:36:10.982Z,86.49
2018-04-17T06:38:38.495Z,86.52
2018-04-17T06:41:06.043Z,86.96
2018-04-17T06:43:34.623Z,86.29
2018-04-17T06:46:02.222Z,86.10
2018-04-17T06:48:29.730Z,85.52
2018-04-17T06:50:57.227Z,85.35
2018-04-17T06:53:24.783Z,84.42
2018-04-17T06:55:52.285Z,82.66
2018-04-17T06:58:19.759Z,83.24
2018-04-17T07:00:48.686Z,82.72
2018-04-17T07:03:16.193Z,83.31
2018-04-17T07:05:43.772Z,83.74
2018-04-17T07:08:11.296Z,83.69
2018-04-17T07:10:38.796Z,82.61
2018-04-17T07:13:06.271Z,82.73
2018-04-17T07:15:33.801Z,82.29
2018-04-17T07:18:01.279Z,81.44
2018-04-17T07:20:28.791Z,81.39
2018-04-17T07:22:56.296Z,80.57
2018-04-17T07:25:23.787Z,79.69
2018-04-17T07:27:51.298Z,79.25
2018-04-17T07:30:18.848Z,79.92
2018-04-17T07:32:46.335Z,78.34
2018-04-17T07:35:13.828Z,77.14
2018-04-17T07:37:41.338Z,77.75
2018-04-17T07:40:09.015Z,77.76
2018-04-17T07:42:36.531Z,77.22
2018-04-17T07:45:04.018Z,76.05
2018-04-17T07:47:31.501Z,76.61
2018-04-17T07:49:59.014Z,75.40
2018-04-17T07:52:26.489Z,76.09
2018-04-17T07:54:53.990Z,75.20
2018-04-17T07:57:21.495Z,74.43
2018-04-17T07:59:49.839Z,75.18
2018-04-17T08:02:17.686Z,74.20
2018-04-17T08:04:45.155Z,73.70
2018-04-17T08:07:12.646Z,72.72
2018-04-17T08:09:40.147Z,71.84
2018-04-17T08:12:07.650Z,70.94
2018-04-17T08:14:35.115Z,70.98
2018-04-17T08:17:02.607Z,70.46
2018-04-17T08:19:30.261Z,69.97
2018-04-17T08:21:57.766Z,69.92
2018-04-17T08:24:25.425Z,67.99
2018-04-17T08:26:52.930Z,66.56
2018-04-17T08:29:20.426Z,66.42
2018-04-17T08:31:47.948Z,66.12
2018-04-17T08:34:15.485Z,65.47
2018-04-17T08:36:42.992Z,63.90
2018-04-17T08:39:10.488Z,65.12
2018-04-17T08:41:38.001Z,62.81
2018-04-17T08:44:06.492Z,62.16
2018-04-17T08:46:33.987Z,62.75
2018-04-17T08:49:01.680Z,62.44
2018-04-17T08:51:29.289Z,62.53
2018-04-17T08:53:56.868Z,60.70
2018-04-17T08:56:24.406Z,61.39
2018-04-17T08:58:51.909Z,58.77
2018-04-17T09:01:19.423Z,58.68
2018-04-17T09:03:47.130Z,57.18
2018-04-17T09:06:14.639Z,57.46
2018-04-17T09:08:45.037Z,55.46
2018-04-17T09:11:12.856Z,56.43
2018-04-17T09:13:40.959Z,56.04
2018-04-17T09:16:08.483Z,54.91
2018-04-17T09:18:35.979Z,53.00
2018-04-17T09:21:03.455Z,54.98
2018-04-17T09:23:30.938Z,53.42
2018-04-17T09:25:58.436Z,53.25
2018-04-17T09:28:25.946Z,52.34
2018-04-17T09:30:53.526Z,53.20
2018-04-17T09:33:21.044Z,51.54
2018-04-17T09:35:48.821Z,52.32
2018-04-17T09:38:17.898Z,49.75
2018-04-17T09:40:45.387Z,48.25
2018-04-17T09:43:15.323Z,46.38
2018-04-17T09:45:44.696Z,46.89
2018-04-17T09:48:15.985Z,41.44
2018-04-17T09:50:47.183Z,39.99
2018-04-17T09:53:14.868Z,40.65
2018-04-17T09:55:42.395Z,38.18
2018-04-17T09:58:09.895Z,40.69
2018-04-17T10:00:43.168Z,39.34
2018-04-17T10:03:10.660Z,38.46
2018-04-17T10:05:38.187Z,35.23
2018-04-17T10:08:05.690Z,33.42
2018-04-17T10:10:33.305Z,32.46
2018-04-17T10:13:00.812Z,29.94
2018-04-17T10:15:28.282Z,30.32
2018-04-17T10:17:55.777Z,29.59
2018-04-17T10:20:23.362Z,32.71
2018-04-17T10:22:50.843Z,29.69
2018-04-17T10:25:18.371Z,30.49
2018-04-17T10:27:45.872Z,28.62
2018-04-17T10:30:13.403Z,27.47
2018-04-17T10:32:40.885Z,27.25
2018-04-17T10:35:08.399Z,25.82
2018-04-17T10:37:35.911Z,27.53
2018-04-17T10:40:03.436Z,27.14
2018-04-17T10:42:30.915Z,28.49
2018-04-17T10:44:58.501Z,29.80
2018-04-17T10:47:26.367Z,24.76
2018-04-17T10:49:53.873Z,24.59
2018-04-17T10:52:21.339Z,24.21
2018-04-17T10:54:48.835Z,26.05
2018-04-17T10:57:16.354Z,25.11
2018-04-17T10:59:43.862Z,27.02
2018-04-17T11:02:11.367Z,23.55
2018-04-17T11:04:38.907Z,23.83
2018-04-17T11:07:06.399Z,22.37
2018-04-17T11:09:33.932Z,24.24
2018-04-17T11:12:01.448Z,22.11
2018-04-17T11:14:28.954Z,22.02
2018-04-17T11:16:56.584Z,22.64
2018-04-17T11:19:24.138Z,21.45
2018-04-17T11:21:51.697Z,21.19
2018-04-17T11:24:19.265Z,21.79
2018-04-17T11:26:46.809Z,21.65
2018-04-17T11:29:15.424Z,21.47
2018-04-17T11:31:43.053Z,19.11
2018-04-17T11:34:10.571Z,21.33
2018-04-17T11:36:38.116Z,20.65
2018-04-17T11:39:12.703Z,22.70
2018-04-17T11:41:40.198Z,20.40
2018-04-17T11:44:07.751Z,21.21
2018-04-17T11:46:35.222Z,21.48
2018-04-17T11:49:02.718Z,21.15
2018-04-17T11:51:30.207Z,19.65
2018-04-17T11:53:57.705Z,19.34
2018-04-17T11:56:25.251Z,19.99
2018-04-17T11:58:52.736Z,19.74
2018-04-17T12:01:20.302Z,19.02
2018-04-17T12:03:47.787Z,18.39
2018-04-17T12:06:15.288Z,17.67
2018-04-17T12:08:42.772Z,18.99
2018-04-17T12:11:10.272Z,21.12
2018-04-17T12:13:37.744Z,17.71
2018-04-17T12:16:05.243Z,17.53
2018-04-17T12:18:32.714Z,16.47
2018-04-17T12:21:00.223Z,15.27
2018-04-17T12:23:27.721Z,16.23
2018-04-17T12:25:55.225Z,19.77
2018-04-17T12:28:22.703Z,16.30
2018-04-17T12:30:50.196Z,17.73
2018-04-17T12:33:17.699Z,16.54
2018-04-17T12:35:45.191Z,16.67
2018-04-17T12:38:12.666Z,16.05
2018-04-17T12:40:40.173Z,17.63
2018-04-17T12:43:07.685Z,18.23
2018-04-17T12:45:35.221Z,15.78
2018-04-17T12:48:02.695Z,15.14
2018-04-17T12:50:30.216Z,16.25
2018-04-17T12:52:57.720Z,15.09
2018-04-17T12:55:25.212Z,15.40
2018-04-17T12:57:52.688Z,15.54
2018-04-17T13:00:20.223Z,13.55
2018-04-17T13:02:47.692Z,12.29
2018-04-17T13:05:15.183Z,13.30
2018-04-17T13:07:42.655Z,12.85
2018-04-17T13:10:10.172Z,12.28
2018-04-17T13:12:37.646Z,13.27
2018-04-17T13:15:05.135Z,13.29
2018-04-17T13:17:32.612Z,14.82
2018-04-17T13:20:00.112Z,14.43
2018-04-17T13:22:27.595Z,13.22
2018-04-17T13:24:55.101Z,12.25
2018-04-17T13:27:22.641Z,11.52
2018-04-17T13:29:50.113Z,14.52
2018-04-17T13:32:17.611Z,12.74
2018-04-17T13:34:45.090Z,10.49
2018-04-17T13:37:12.596Z,13.05
2018-04-17T13:39:40.067Z,11.59
2018-04-17T13:42:07.555Z,12.25
2018-04-17T13:44:35.040Z,11.39
2018-04-17T13:47:02.563Z,10.92
2018-04-17T13:49:30.135Z,13.03
2018-04-17T13:51:57.629Z,13.21
2018-04-17T13:54:25.144Z,13.89
2018-04-17T13:56:52.640Z,10.94
2018-04-17T13:59:20.107Z,11.75
2018-04-17T14:01:47.672Z,12.64
2018-04-17T14:04:15.102Z,10.28
2018-04-17T14:06:42.630Z,10.91
2018-04-17T14:09:10.097Z,9.80
2018-04-17T14:11:37.599Z,12.20
2018-04-17T14:14:05.094Z,11.94
2018-04-17T14:16:32.585Z,12.55
2018-04-17T14:19:00.064Z,11.04
2018-04-17T14:21:27.591Z,12.26
2018-04-17T14:23:55.083Z,11.34
2018-04-17T14:26:22.784Z,11.66
2018-04-17T14:28:50.268Z,10.33
2018-04-17T14:31:17.906Z,10.09
2018-04-17T14:33:45.380Z,10.16
2018-04-17T14:36:12.912Z,12.20
2018-04-17T14:38:40.410Z,11.41
2018-04-17T14:41:07.928Z,11.23
2018-04-17T14:43:35.543Z,13.67
2018-04-17T14:46:03.043Z,11.99
2018-04-17T14:48:30.536Z,12.88
2018-04-17T14:50:58.476Z,13.72
2018-04-17T14:53:26.005Z,11.55
2018-04-17T14:55:53.663Z,14.33
2018-04-17T14:58:21.183Z,13.06
2018-04-17T15:00:48.655Z,14.60
2018-04-17T15:03:16.167Z,13.75
2018-04-17T15:05:43.633Z,12.47
2018-04-17T15:08:11.146Z,13.47
2018-04-17T15:10:38.643Z,13.24
2018-04-17T15:13:06.134Z,12.38
2018-04-17T15:15:33.826Z,13.22
2018-04-17T15:18:01.351Z,13.86
2018-04-17T15:20:28.821Z,14.21
2018-04-17T15:22:56.419Z,15.58
2018-04-17T15:25:23.925Z,17.41
2018-04-17T15:27:51.431Z,16.95
2018-04-17T15:30:18.936Z,17.83
2018-04-17T15:32:46.558Z,19.49
2018-04-17T15:35:14.025Z,20.02
2018-04-17T15:37:41.568Z,18.31
2018-04-17T15:40:09.049Z,19.61
2018-04-17T15:42:36.563Z,20.49
2018-04-17T15:45:04.047Z,21.15
2018-04-17T15:47:31.543Z,21.88
2018-04-17T15:49:59.048Z,22.22
2018-04-17T15:52:26.546Z,19.58
2018-04-17T15:54:54.015Z,17.64
2018-04-17T15:57:22.611Z,15.27
2018-04-17T15:59:50.103Z,14.88
2018-04-17T16:02:17.631Z,13.04
2018-04-17T16:04:45.104Z,12.43
2018-04-17T16:07:12.651Z,12.76
2018-04-17T16:09:40.158Z,13.30
2018-04-17T16:12:07.658Z,12.80
2018-04-17T16:14:35.140Z,13.38
2018-04-17T16:17:02.683Z,13.10
2018-04-17T16:19:30.160Z,11.63
2018-04-17T16:21:57.979Z,12.59
2018-04-17T16:24:25.449Z,12.62
2018-04-17T16:26:52.915Z,13.84
2018-04-17T16:29:20.465Z,12.99
2018-04-17T16:31:47.952Z,12.54
2018-04-17T16:34:15.444Z,13.21
2018-04-17T16:36:42.972Z,14.96
2018-04-17T16:39:10.467Z,13.89
2018-04-17T16:41:38.004Z,13.78
2018-04-17T16:44:05.495Z,15.57
2018-04-17T16:46:35.640Z,16.91
2018-04-17T16:49:03.227Z,16.97
2018-04-17T16:51:30.707Z,17.07
2018-04-17T16:53:58.308Z,19.01
2018-04-17T16:56:25.801Z,18.75
2018-04-17T16:58:53.355Z,20.88
2018-04-17T17:01:20.828Z,24.37
2018-04-17T17:03:48.558Z,26.71
2018-04-17T17:06:16.033Z,27.32
2018-04-17T17:08:43.533Z,28.86
2018-04-17T17:11:11.001Z,29.11
2018-04-17T17:13:38.503Z,29.37
2018-04-17T17:16:05.971Z,30.21
2018-04-17T17:18:33.464Z,29.89
2018-04-17T17:21:00.975Z,30.53
2018-04-17T17:23:28.487Z,31.05
2018-04-17T17:25:55.983Z,31.21
2018-04-17T17:28:23.612Z,30.88
2018-04-17T17:30:51.093Z,32.02
2018-04-17T17:33:18.607Z,32.15
2018-04-17T17:35:46.092Z,33.09
2018-04-17T17:38:13.624Z,33.64
2018-04-17T17:40:41.101Z,33.53
2018-04-17T17:43:08.663Z,32.82
2018-04-17T17:45:36.308Z,34.21
2018-04-17T17:48:03.859Z,34.05
2018-04-17T17:50:31.319Z,34.88
2018-04-17T17:52:58.843Z,35.05
2018-04-17T17:55:26.340Z,35.49
2018-04-17T17:57:53.849Z,36.59
2018-04-17T18:00:21.320Z,36.82
2018-04-17T18:02:48.786Z,37.85
2018-04-17T18:05:16.284Z,36.66
2018-04-17T18:07:43.751Z,36.92
2018-04-17T18:10:11.257Z,36.85
2018-04-17T18:12:38.739Z,37.81
2018-04-17T18:15:06.247Z,38.03
2018-04-17T18:17:33.751Z,38.91
2018-04-17T18:20:01.248Z,39.68
2018-04-17T18:22:28.719Z,39.64
2018-04-17T18:24:56.336Z,40.74
2018-04-17T18:27:23.905Z,41.31
2018-04-17T18:29:51.685Z,40.57
2018-04-17T18:32:19.166Z,38.53
2018-04-17T18:34:46.703Z,37.80
2018-04-17T18:37:14.179Z,37.15
2018-04-17T18:39:41.685Z,36.66
2018-04-17T18:42:09.376Z,37.65
2018-04-17T18:44:36.903Z,38.78
2018-04-17T18:47:04.398Z,39.10
2018-04-17T18:49:31.994Z,39.16
2018-04-17T18:51:59.475Z,40.36
2018-04-17T18:54:26.967Z,41.25
2018-04-17T18:56:54.447Z,41.78
2018-04-17T18:59:21.993Z,44.09
2018-04-17T19:01:49.524Z,43.35
2018-04-17T19:04:17.027Z,43.23
2018-04-17T19:06:44.510Z,44.27
2018-04-17T19:09:12.003Z,44.50
2018-04-17T19:11:39.483Z,45.80
2018-04-17T19:14:07.052Z,46.55
2018-04-17T19:16:34.525Z,46.52
2018-04-17T19:19:02.027Z,47.03
2018-04-17T19:21:29.540Z,48.38
2018-04-17T19:23:57.180Z,47.94
2018-04-17T19:26:24.763Z,48.46
2018-04-17T19:28:52.253Z,49.49
2018-04-17T19:31:19.768Z,49.79
2018-04-17T19:33:47.247Z,49.16
2018-04-17T19:36:14.744Z,49.62
2018-04-17T19:38:42.211Z,49.60
2018-04-17T19:41:09.727Z,50.42
2018-04-17T19:43:37.704Z,49.88
2018-04-17T19:46:05.195Z,48.98
2018-04-17T19:48:32.659Z,49.06
2018-04-17T19:51:00.234Z,48.96
2018-04-17T19:53:27.764Z,48.84
2018-04-17T19:55:55.264Z,48.94
2018-04-17T19:58:22.790Z,48.30
2018-04-17T20:00:50.391Z,48.54
2018-04-17T20:03:17.916Z,48.46
2018-04-17T20:05:45.407Z,49.52
2018-04-17T20:08:12.953Z,49.01
2018-04-17T20:10:40.447Z,49.57
2018-04-17T20:13:07.943Z,49.18
2018-04-17T20:15:35.435Z,49.17
2018-04-17T20:18:02.925Z,48.48
2018-04-17T20:20:30.452Z,49.07
2018-04-17T20:22:57.939Z,50.17
2018-04-17T20:25:25.454Z,49.81
2018-04-17T20:27:52.989Z,49.42
2018-04-17T20:30:20.480Z,50.18
2018-04-17T20:32:48.040Z,50.66
2018-04-17T20:35:15.539Z,51.35
2018-04-17T20:37:43.016Z,51.48
2018-04-17T20:40:10.509Z,52.32
2018-04-17T20:42:38.052Z,52.46
2018-04-17T20:45:05.634Z,54.79
2018-04-17T20:47:33.121Z,54.74
2018-04-17T20:50:00.615Z,54.79
2018-04-17T20:52:28.115Z,55.81
2018-04-17T20:54:55.601Z,55.67
2018-04-17T20:57:23.107Z,56.11
2018-04-17T20:59:50.583Z,56.24
2018-04-17T21:02:18.085Z,55.53
2018-04-17T21:04:45.552Z,55.38
2018-04-17T21:07:13.056Z,54.11
2018-04-17T21:09:40.526Z,52.96
2018-04-17T21:12:08.148Z,52.40
2018-04-17T21:14:36.733Z,52.60
2018-04-17T21:17:04.228Z,51.50
2018-04-17T21:19:31.707Z,51.68
2018-04-17T21:21:59.311Z,51.80
2018-04-17T21:24:26.826Z,50.96
2018-04-17T21:26:55.254Z,49.40
2018-04-17T21:29:22.896Z,49.86
2018-04-17T21:31:50.467Z,49.31
2018-04-17T21:34:17.947Z,49.27
2018-04-17T21:36:45.476Z,48.95
2018-04-17T21:39:12.959Z,48.59
2018-04-17T21:41:40.467Z,48.24
2018-04-17T21:44:07.931Z,48.44
2018-04-17T21:46:35.426Z,48.47
2018-04-17T21:49:03.618Z,48.31
2018-04-17T21:51:31.205Z,47.84
2018-04-17T21:53:58.743Z,47.75
2018-04-17T21:56:26.240Z,47.29
2018-04-17T21:58:53.938Z,47.50
2018-04-17T22:01:36.353Z,48.01
2018-04-17T22:04:04.158Z,47.47
2018-04-17T22:06:31.641Z,46.90
2018-04-17T22:08:59.170Z,47.05
2018-04-17T22:11:26.697Z,46.47
2018-04-17T22:13:54.167Z,46.56
2018-04-17T22:16:21.655Z,46.53
2018-04-17T22:18:49.162Z,46.46
2018-04-17T22:21:16.799Z,46.12
2018-04-17T22:23:44.324Z,46.10
2018-04-17T22:26:11.842Z,46.26
2018-04-17T22:28:39.315Z,46.30
2018-04-17T22:31:06.807Z,46.37
2018-04-17T22:33:34.287Z,46.69
2018-04-17T22:36:01.779Z,46.51
2018-04-17T22:38:29.267Z,46.75
2018-04-17T22:40:56.760Z,46.93
2018-04-17T22:43:24.251Z,47.42
2018-04-17T22:45:51.719Z,47.13
2018-04-17T22:48:19.203Z,46.88
2018-04-17T22:50:46.667Z,47.24
2018-04-17T22:53:14.184Z,47.27
2018-04-17T22:55:41.659Z,47.34
2018-04-17T22:58:09.151Z,47.58
2018-04-17T23:00:36.663Z,47.63
2018-04-17T23:03:04.196Z,49.19
2018-04-17T23:05:31.663Z,53.76
2018-04-17T23:07:59.562Z,55.98
2018-04-17T23:10:27.101Z,57.16
2018-04-17T23:12:54.660Z,58.15
2018-04-17T23:15:22.128Z,58.75
2018-04-17T23:17:49.621Z,59.32
2018-04-17T23:20:17.114Z,60.02
2018-04-17T23:22:44.603Z,60.54
2018-04-17T23:25:12.068Z,60.72
2018-04-17T23:27:39.562Z,60.69
2018-04-17T23:30:07.087Z,60.06
2018-04-17T23:32:34.586Z,61.27
2018-04-17T23:35:02.088Z,60.72
2018-04-17T23:37:29.791Z,60.79
2018-04-17T23:39:57.350Z,60.50
2018-04-17T23:42:24.862Z,60.78
2018-04-17T23:44:52.471Z,60.49
2018-04-17T23:47:20.004Z,60.48
2018-04-17T23:49:47.551Z,60.91
2018-04-17T23:52:15.051Z,61.60
2018-04-17T23:54:42.519Z,61.81
2018-04-17T23:57:10.009Z,62.27
2018-04-17T23:59:37.507Z,62.82
